Time;durP1;ratioP1;P1;durP2;ratioP2;P2;SDS_P1;SDS_P2;PMS_P1;PMS_P2;Temp;Humidity;BMP_temperature;BMP_pressure;BME280_temperature;BME280_humidity;BME280_pressure;Samples;Min_cycle;Max_cycle;Signal;HPM_P1;HPM_P2
2023/10/14 00:01:15;;;;;;;11.20;8.80;;;;;;;7.07;77.94;100883.27;108166;1251;61382;-69
2023/10/14 00:03:45;;;;;;;10.60;8.70;;;;;;;7.06;77.83;100880.74;108211;1252;61137;-70
2023/10/14 00:06:13;;;;;;;10.50;8.60;;;;;;;7.02;77.97;100877.08;108060;1252;74667;-69
2023/10/14 00:09:06;;;;;;;9.90;8.10;;;;;;;6.93;77.95;100872.75;108143;1256;72750;-70
2023/10/14 00:11:42;;;;;;;10.10;8.00;;;;;;;6.82;78.08;100866.23;108240;1251;73203;-69
2023/10/14 00:14:15;;;;;;;9.60;8.20;;;;;;;6.80;78.20;100864.14;108141;1251;61768;-69
2023/10/14 00:16:49;;;;;;;9.70;8.10;;;;;;;6.84;78.41;100860.51;108122;1253;61446;-71
2023/10/14 00:19:22;;;;;;;9.70;8.00;;;;;;;6.87;78.44;100861.64;108191;1252;73437;-69
2023/10/14 00:21:50;;;;;;;9.40;8.10;;;;;;;6.93;78.57;100862.82;108309;1252;73710;-69
2023/10/14 00:24:27;;;;;;;9.20;7.20;;;;;;;6.98;78.56;100860.10;108224;1257;71664;-69
2023/10/14 00:26:57;;;;;;;9.80;7.70;;;;;;;6.90;78.46;100861.48;108325;1253;61927;-69
2023/10/14 00:29:29;;;;;;;8.00;7.10;;;;;;;6.80;78.43;100862.86;108265;1252;61139;-69
2023/10/14 00:31:58;;;;;;;8.60;7.50;;;;;;;6.72;78.62;100863.87;108288;1252;74680;-69
2023/10/14 00:34:27;;;;;;;9.40;7.80;;;;;;;6.65;78.60;100869.96;108257;1253;71459;-70
2023/10/14 00:36:57;;;;;;;8.40;7.30;;;;;;;6.63;78.68;100873.05;108311;1253;72634;-71
2023/10/14 00:39:28;;;;;;;9.40;7.90;;;;;;;6.62;78.75;100881.02;108024;1254;61791;-69
2023/10/14 00:41:56;;;;;;;8.80;7.50;;;;;;;6.64;78.91;100877.00;108158;1257;61849;-70
2023/10/14 00:44:24;;;;;;;9.20;8.10;;;;;;;6.71;79.00;100867.43;108208;1251;73759;-69
2023/10/14 00:46:55;;;;;;;10.10;8.20;;;;;;;6.77;79.02;100869.35;108103;1251;71297;-70
2023/10/14 00:49:42;;;;;;;7.10;5.60;;;;;;;6.83;78.96;100871.86;108153;1253;72998;-69
2023/10/14 00:52:18;;;;;;;9.90;8.20;;;;;;;6.88;78.91;100864.81;108131;1253;61743;-70
2023/10/14 00:57:22;;;;;;;9.70;8.00;;;;;;;6.94;78.82;100853.70;108255;1251;73389;-71
2023/10/14 00:59:53;;;;;;;9.60;8.30;;;;;;;6.94;78.83;100849.61;108227;1251;72870;-72
2023/10/14 01:02:30;;;;;;;8.50;7.60;;;;;;;6.88;78.77;100844.59;108328;1253;73567;-69
2023/10/14 01:05:12;;;;;;;10.20;8.00;;;;;;;6.80;78.85;100837.14;108132;1253;62725;-70
2023/10/14 01:07:40;;;;;;;9.50;8.40;;;;;;;6.75;78.90;100830.38;108269;1251;60084;-70
2023/10/14 01:10:12;;;;;;;11.60;9.10;;;;;;;6.71;79.02;100832.77;108289;1253;74629;-70
2023/10/14 01:12:44;;;;;;;11.70;9.30;;;;;;;6.70;79.12;100834.00;108298;1251;71562;-70
2023/10/14 01:15:22;;;;;;;9.40;8.30;;;;;;;6.72;79.18;100830.58;108264;1253;71197;-70
2023/10/14 01:17:52;;;;;;;10.30;9.10;;;;;;;6.79;79.40;100824.61;108248;1253;61485;-71
2023/10/14 01:22:57;;;;;;;10.10;8.00;;;;;;;6.86;79.45;100818.35;108260;1252;74731;-70
2023/10/14 01:25:30;;;;;;;10.00;8.90;;;;;;;6.86;79.38;100808.10;108227;1251;72071;-69
2023/10/14 01:28:08;;;;;;;9.80;8.60;;;;;;;6.86;79.41;100812.56;108245;1252;72705;-70
2023/10/14 01:30:42;;;;;;;9.80;8.70;;;;;;;6.87;79.34;100816.34;108049;1253;60935;-70
2023/10/14 01:33:15;;;;;;;10.20;8.70;;;;;;;6.84;79.35;100819.61;108030;1261;60205;-70
2023/10/14 01:35:45;;;;;;;10.70;8.40;;;;;;;6.76;79.35;100816.19;108263;1252;73470;-71
2023/10/14 01:38:16;;;;;;;10.50;8.50;;;;;;;6.71;79.41;100807.81;108166;1252;71453;-70
2023/10/14 01:40:49;;;;;;;11.40;8.90;;;;;;;6.68;79.45;100805.20;108199;1251;73323;-69
2023/10/14 01:43:17;;;;;;;11.40;8.60;;;;;;;6.73;79.59;100808.77;108023;1252;208670;-70
2023/10/14 01:48:25;;;;;;;10.80;9.20;;;;;;;6.84;79.55;100801.71;108209;1251;73352;-70
2023/10/14 01:50:54;;;;;;;10.20;8.80;;;;;;;6.88;79.53;100794.34;108299;1258;72844;-70
2023/10/14 01:53:23;;;;;;;11.70;9.00;;;;;;;6.87;79.46;100790.23;108212;1251;72690;-70
2023/10/14 01:55:53;;;;;;;12.20;9.40;;;;;;;6.88;79.44;100791.46;108208;1253;61850;-70
2023/10/14 02:00:53;;;;;;;12.10;9.50;;;;;;;7.03;79.69;100785.02;108161;1253;74670;-69
2023/10/14 02:03:21;;;;;;;12.00;10.00;;;;;;;7.09;79.75;100786.73;108034;1252;71450;-70
2023/10/14 02:05:51;;;;;;;13.90;10.80;;;;;;;7.14;79.61;100783.05;108135;1253;70471;-70
2023/10/14 02:08:23;;;;;;;14.40;11.60;;;;;;;7.16;79.60;100785.16;108136;1253;60488;-70
2023/10/14 02:10:50;;;;;;;13.00;10.40;;;;;;;7.17;79.60;100786.63;108127;1251;61131;-70
2023/10/14 02:13:23;;;;;;;14.20;10.50;;;;;;;7.15;79.61;100786.80;108241;1251;74707;-70
2023/10/14 02:15:52;;;;;;;13.30;10.60;;;;;;;7.09;79.50;100784.27;108212;1251;75019;-69
2023/10/14 02:18:22;;;;;;;13.20;10.70;;;;;;;7.09;79.54;100782.44;108202;1253;71968;-70
2023/10/14 02:23:45;;;;;;;13.70;11.30;;;;;;;7.17;79.75;100794.45;108138;1253;61347;-70
2023/10/14 02:26:33;;;;;;;14.50;11.40;;;;;;;7.18;79.61;100796.34;108217;1251;73414;-70
2023/10/14 02:29:01;;;;;;;13.60;10.90;;;;;;;7.19;79.67;100791.92;108414;1251;72729;-69
2023/10/14 02:31:29;;;;;;;12.50;10.40;;;;;;;7.19;79.65;100788.36;108216;1252;72664;-69
2023/10/14 02:34:08;;;;;;;11.50;10.30;;;;;;;7.20;79.76;100787.33;108187;1253;61263;-70
2023/10/14 02:36:48;;;;;;;12.90;10.00;;;;;;;7.19;79.71;100784.88;108170;1259;61629;-70
2023/10/14 02:39:23;;;;;;;12.20;10.60;;;;;;;7.13;79.66;100785.46;108215;1251;73399;-69
2023/10/14 02:41:58;;;;;;;12.60;9.90;;;;;;;7.07;79.66;100783.92;108176;1253;72991;-70
2023/10/14 02:44:32;;;;;;;12.60;10.10;;;;;;;7.02;79.72;100786.00;108198;1253;72729;-70
2023/10/14 02:47:08;;;;;;;12.50;10.60;;;;;;;7.00;79.86;100784.73;108129;1253;61357;-70
2023/10/14 02:49:38;;;;;;;13.50;10.60;;;;;;;7.02;79.96;100778.23;108079;1253;61224;-70
2023/10/14 02:52:10;;;;;;;13.50;10.90;;;;;;;7.07;79.94;100774.90;108161;1253;74726;-70
2023/10/14 02:54:42;;;;;;;13.90;10.60;;;;;;;7.13;79.95;100769.33;108184;1258;71796;-70
2023/10/14 02:57:13;;;;;;;13.30;10.90;;;;;;;7.20;80.01;100772.57;108120;1251;72546;-70
2023/10/14 02:59:44;;;;;;;14.30;11.30;;;;;;;7.24;79.94;100775.64;108155;1253;61231;-70
2023/10/14 03:07:29;;;;;;;15.20;11.40;;;;;;;7.33;79.89;100765.11;108280;1253;75433;-70
2023/10/14 03:12:49;;;;;;;12.70;10.80;;;;;;;7.35;79.87;100755.23;108218;1258;61750;-70
2023/10/14 03:15:20;;;;;;;13.70;10.80;;;;;;;7.38;79.81;100755.99;108266;1253;61226;-70
2023/10/14 03:18:04;;;;;;;11.90;9.90;;;;;;;7.37;79.69;100750.60;108263;1251;73435;-69
2023/10/14 03:23:02;;;;;;;12.70;9.50;;;;;;;7.26;79.73;100735.10;108232;1253;71502;-70
2023/10/14 03:25:30;;;;;;;11.90;10.00;;;;;;;7.20;79.68;100727.52;108201;1256;61614;-69
2023/10/14 03:28:14;;;;;;;13.40;10.30;;;;;;;7.11;79.68;100724.70;108230;1257;61150;-70
2023/10/14 03:30:44;;;;;;;12.60;10.20;;;;;;;7.04;79.79;100720.38;108040;1253;73438;-70
2023/10/14 03:33:14;;;;;;;11.10;9.90;;;;;;;7.03;79.88;100718.08;108058;1256;72883;-70
2023/10/14 03:35:43;;;;;;;11.70;9.90;;;;;;;7.03;79.97;100712.18;108222;1256;72660;-70
2023/10/14 03:38:33;;;;;;;12.80;10.50;;;;;;;7.04;79.97;100704.49;108191;1253;61129;-70
2023/10/14 03:41:10;;;;;;;14.40;10.90;;;;;;;7.10;80.08;100700.02;108217;1253;61273;-70
2023/10/14 03:46:32;;;;;;;15.30;11.50;;;;;;;7.29;80.13;100698.44;108101;1253;75046;-70
2023/10/14 03:49:20;;;;;;;12.70;10.90;;;;;;;7.38;80.22;100690.92;108164;1253;72670;-70
2023/10/14 03:51:52;;;;;;;13.60;11.60;;;;;;;7.45;80.02;100691.84;108174;1254;61196;-70
2023/10/14 03:54:23;;;;;;;14.20;11.80;;;;;;;7.52;80.06;100687.63;108270;1253;61054;-70
2023/10/14 03:56:52;;;;;;;13.70;11.20;;;;;;;7.59;80.00;100679.21;108232;1254;75065;-69
2023/10/14 03:59:21;;;;;;;13.80;11.20;;;;;;;7.64;79.94;100672.98;108095;1251;71606;-69
2023/10/14 04:02:12;;;;;;;13.50;11.00;;;;;;;7.68;79.84;100679.06;108234;1253;71535;-69
2023/10/14 04:04:42;;;;;;;14.60;10.80;;;;;;;7.75;79.93;100686.08;108217;1253;61095;-71
2023/10/14 04:09:51;;;;;;;14.00;10.80;;;;;;;7.85;79.92;100690.91;108260;1254;74684;-70
2023/10/14 04:12:47;;;;;;;15.00;11.00;;;;;;;7.91;80.05;100688.36;108240;1251;71538;-70
2023/10/14 04:15:34;;;;;;;13.80;10.50;;;;;;;7.92;79.95;100691.58;108293;1253;72643;-70
2023/10/14 04:18:12;;;;;;;13.30;10.10;;;;;;;7.92;79.83;100690.89;108216;1253;61305;-71
2023/10/14 04:20:45;;;;;;;14.40;10.20;;;;;;;7.93;79.73;100691.38;108057;1253;60260;-70
2023/10/14 04:23:26;;;;;;;13.00;10.30;;;;;;;7.94;79.63;100693.89;108183;1253;73504;-71
2023/10/14 04:26:02;;;;;;;14.10;10.30;;;;;;;7.95;79.66;100694.02;108229;1253;72525;-70
2023/10/14 04:28:30;;;;;;;15.00;11.10;;;;;;;7.99;79.51;100695.73;108125;1251;72695;-70
2023/10/14 04:31:06;;;;;;;13.00;10.40;;;;;;;8.05;79.62;100696.98;108259;1252;61700;-71
2023/10/14 04:33:44;;;;;;;12.70;9.70;;;;;;;8.08;79.72;100702.06;108263;1253;60000;-71
2023/10/14 04:38:42;;;;;;;14.80;11.10;;;;;;;8.13;79.87;100708.38;108193;1251;71412;-71
2023/10/14 04:41:14;;;;;;;12.80;10.20;;;;;;;8.19;80.10;100712.98;108182;1254;71061;-71
2023/10/14 04:46:13;;;;;;;14.00;10.60;;;;;;;8.31;80.07;100701.75;108238;1254;61186;-72
2023/10/14 04:48:59;;;;;;;13.10;10.60;;;;;;;8.36;79.93;100698.12;108184;1251;73359;-70
2023/10/14 04:51:46;;;;;;;12.00;9.90;;;;;;;8.44;80.02;100695.36;108247;1253;72075;-71
2023/10/14 04:54:20;;;;;;;13.40;9.90;;;;;;;8.51;79.89;100694.73;108308;1253;72633;-71
2023/10/14 04:56:48;;;;;;;13.50;10.30;;;;;;;8.58;79.89;100692.13;108261;1253;60465;-71
2023/10/14 04:59:24;;;;;;;11.10;9.20;;;;;;;8.66;79.97;100686.04;108253;1252;61224;-70
2023/10/14 05:01:55;;;;;;;13.20;10.00;;;;;;;8.75;79.84;100682.89;108209;1251;73468;-70
2023/10/14 05:04:29;;;;;;;12.40;10.30;;;;;;;8.82;79.93;100680.13;108239;1252;72110;-71
2023/10/14 05:07:03;;;;;;;11.60;9.70;;;;;;;8.89;79.92;100682.70;108233;1254;72517;-70
2023/10/14 05:09:39;;;;;;;13.80;9.90;;;;;;;8.94;79.86;100676.44;108106;1252;61198;-70
2023/10/14 05:12:08;;;;;;;14.00;9.60;;;;;;;9.00;79.99;100668.25;108362;1256;61077;-70
2023/10/14 05:14:37;;;;;;;12.30;9.90;;;;;;;9.07;79.97;100665.54;108300;1256;74620;-70
2023/10/14 05:17:14;;;;;;;13.70;10.20;;;;;;;9.16;80.05;100662.41;108220;1254;72513;-70
2023/10/14 05:19:43;;;;;;;12.70;9.80;;;;;;;9.24;80.06;100663.54;108186;1252;72596;-70
2023/10/14 05:22:18;;;;;;;12.10;10.00;;;;;;;9.34;80.22;100663.80;108263;1254;61098;-71
2023/10/14 05:24:52;;;;;;;14.60;9.20;;;;;;;9.45;80.12;100664.26;108216;1256;61089;-71
2023/10/14 05:27:21;;;;;;;13.90;9.60;;;;;;;9.55;80.21;100659.91;108301;1251;73441;-70
2023/10/14 05:29:52;;;;;;;12.30;9.30;;;;;;;9.67;80.26;100657.98;108246;1257;71425;-70
2023/10/14 05:32:30;;;;;;;11.60;9.40;;;;;;;9.81;80.31;100664.70;108180;1254;72724;-71
2023/10/14 05:34:59;;;;;;;13.90;9.60;;;;;;;9.92;80.43;100667.08;108208;1255;61124;-70
2023/10/14 05:37:27;;;;;;;12.40;9.10;;;;;;;10.05;80.40;100671.02;108277;1252;61103;-70
2023/10/14 05:39:54;;;;;;;11.60;9.20;;;;;;;10.19;80.57;100669.51;108175;1253;73654;-69
2023/10/14 05:42:24;;;;;;;11.40;9.40;;;;;;;10.35;80.76;100666.86;108276;1251;71554;-69
2023/10/14 05:45:01;;;;;;;12.00;9.20;;;;;;;10.50;80.82;100664.34;108233;1253;73588;-70
2023/10/14 05:47:29;;;;;;;11.90;8.90;;;;;;;10.66;80.71;100666.34;108219;1257;62538;-70
2023/10/14 05:49:56;;;;;;;12.50;9.40;;;;;;;10.78;80.78;100667.24;108130;1253;61481;-69
2023/10/14 05:52:24;;;;;;;12.50;9.30;;;;;;;10.91;80.76;100662.30;108190;1252;73658;-70
2023/10/14 05:54:53;;;;;;;11.40;9.00;;;;;;;11.00;80.77;100656.38;108239;1251;71686;-70
2023/10/14 05:57:22;;;;;;;11.60;10.00;;;;;;;11.08;80.75;100647.30;108215;1252;71065;-69
2023/10/14 05:59:50;;;;;;;11.70;10.20;;;;;;;11.25;80.71;100643.27;108225;1254;61293;-70
2023/10/14 06:02:19;;;;;;;12.20;9.50;;;;;;;11.42;80.74;100638.14;108262;1257;61129;-72
2023/10/14 06:04:50;;;;;;;12.90;10.00;;;;;;;11.59;80.77;100628.90;108117;1257;73387;-69
2023/10/14 06:07:18;;;;;;;11.90;10.00;;;;;;;11.77;80.98;100628.85;108195;1252;72905;-70
2023/10/14 06:09:47;;;;;;;12.10;9.60;;;;;;;11.97;81.14;100631.71;108203;1252;71381;-70
2023/10/14 06:12:16;;;;;;;13.00;9.70;;;;;;;12.18;81.41;100638.45;108177;1254;61222;-69
2023/10/14 06:14:46;;;;;;;11.80;9.40;;;;;;;12.40;81.49;100635.91;108182;1254;59923;-69
2023/10/14 06:17:14;;;;;;;11.90;9.50;;;;;;;12.61;81.69;100637.90;108203;1251;74645;-69
2023/10/14 06:19:43;;;;;;;13.50;9.50;;;;;;;12.81;81.78;100635.48;108161;1256;72927;-70
2023/10/14 06:22:13;;;;;;;12.10;9.00;;;;;;;13.02;81.96;100640.60;108122;1251;72721;-70
2023/10/14 06:24:42;;;;;;;11.80;9.30;;;;;;;13.23;82.00;100639.28;108175;1254;60188;-69
2023/10/14 06:27:20;;;;;;;12.90;9.20;;;;;;;13.46;82.03;100639.06;108230;1253;61218;-69
2023/10/14 06:29:50;;;;;;;11.80;8.80;;;;;;;13.72;81.93;100631.29;108239;1251;73226;-70
2023/10/14 06:32:18;;;;;;;11.00;9.30;;;;;;;13.94;81.80;100631.11;108261;1258;72672;-69
2023/10/14 06:34:57;;;;;;;11.60;8.40;;;;;;;14.14;81.34;100628.67;108149;1251;71694;-70
2023/10/14 06:37:27;;;;;;;9.90;7.90;;;;;;;14.32;80.95;100630.55;108215;1253;61211;-69
2023/10/14 06:39:56;;;;;;;10.10;8.20;;;;;;;14.48;80.46;100628.77;108154;1251;60167;-70
2023/10/14 06:42:26;;;;;;;9.80;8.00;;;;;;;14.65;80.10;100628.50;108126;1259;76906;-70
2023/10/14 06:44:55;;;;;;;11.40;8.30;;;;;;;14.81;79.63;100625.28;108188;1259;72891;-70
2023/10/14 06:47:23;;;;;;;12.20;8.60;;;;;;;14.98;79.13;100624.38;108166;1256;72748;-69
2023/10/14 06:49:51;;;;;;;11.90;8.10;;;;;;;15.15;78.71;100621.61;108054;1251;61198;-70
2023/10/14 06:52:18;;;;;;;12.40;8.30;;;;;;;15.34;78.35;100614.52;108079;1251;61254;-70
2023/10/14 06:54:51;;;;;;;10.80;7.90;;;;;;;15.52;77.82;100614.77;108225;1251;74782;-70
2023/10/14 06:57:18;;;;;;;11.50;8.50;;;;;;;15.68;77.22;100614.27;108238;1251;72262;-69
2023/10/14 06:59:46;;;;;;;11.40;8.00;;;;;;;15.83;76.63;100609.08;108226;1258;72744;-68
2023/10/14 07:02:13;;;;;;;11.00;8.30;;;;;;;15.98;76.00;100603.25;108103;1254;64021;-70
2023/10/14 07:04:41;;;;;;;10.30;7.80;;;;;;;16.13;75.34;100603.90;108151;1251;61158;-70
2023/10/14 07:07:09;;;;;;;9.60;7.60;;;;;;;16.23;74.27;100603.32;108186;1258;74689;-70
2023/10/14 07:09:44;;;;;;;10.90;7.40;;;;;;;16.33;73.53;100605.58;108181;1256;74738;-69
2023/10/14 07:12:15;;;;;;;12.70;8.20;;;;;;;16.41;72.68;100589.86;108062;1253;71933;-70
2023/10/14 07:14:46;;;;;;;12.20;7.90;;;;;;;16.49;72.22;100590.05;108158;1251;61154;-70
2023/10/14 07:17:23;;;;;;;10.50;7.80;;;;;;;16.60;71.76;100596.34;108019;1251;62243;-70
2023/10/14 07:19:51;;;;;;;12.20;8.30;;;;;;;16.72;71.09;100593.34;108102;1251;73600;-70
2023/10/14 07:22:22;;;;;;;11.10;8.30;;;;;;;16.82;70.66;100590.59;108161;1255;71657;-70
2023/10/14 07:24:50;;;;;;;13.10;8.60;;;;;;;16.96;70.29;100587.05;108145;1253;72947;-69
2023/10/14 07:27:20;;;;;;;11.70;8.80;;;;;;;17.07;69.98;100587.38;108137;1255;61817;-69
2023/10/14 07:29:48;;;;;;;11.80;8.80;;;;;;;17.17;69.49;100581.73;108152;1255;61253;-70
2023/10/14 07:32:19;;;;;;;11.00;8.40;;;;;;;17.28;69.10;100577.52;108121;1254;73470;-70
2023/10/14 07:34:53;;;;;;;11.60;9.00;;;;;;;17.37;68.14;100577.16;108026;1251;72824;-70
2023/10/14 07:37:21;;;;;;;11.50;8.10;;;;;;;17.43;67.64;100571.71;108155;1251;74910;-69
2023/10/14 07:39:52;;;;;;;11.20;7.80;;;;;;;17.48;67.32;100573.48;108233;1251;63898;-69
2023/10/14 07:42:21;;;;;;;10.20;8.20;;;;;;;17.57;66.83;100572.58;108129;1252;61001;-69
2023/10/14 07:44:52;;;;;;;11.70;7.90;;;;;;;17.63;66.64;100571.59;108060;1253;74836;-68
2023/10/14 07:47:21;;;;;;;14.10;8.70;;;;;;;17.70;66.19;100570.56;108295;1251;72973;-68
2023/10/14 07:49:50;;;;;;;11.00;8.30;;;;;;;17.76;65.76;100566.95;108127;1256;72735;-70
2023/10/14 07:52:20;;;;;;;12.60;8.50;;;;;;;17.83;65.66;100559.84;108219;1257;61104;-69
2023/10/14 07:54:51;;;;;;;10.30;8.00;;;;;;;17.94;65.69;100556.48;108258;1251;61177;-68
2023/10/14 07:57:19;;;;;;;12.00;8.80;;;;;;;18.05;65.29;100553.11;108201;1251;73474;-68
2023/10/14 07:59:50;;;;;;;11.50;8.40;;;;;;;18.13;64.97;100552.38;108214;1254;71789;-68
2023/10/14 08:02:18;;;;;;;10.90;8.40;;;;;;;18.24;64.98;100553.66;108177;1257;71453;-69
2023/10/14 08:04:46;;;;;;;10.10;7.60;;;;;;;18.36;64.91;100548.06;108231;1254;61093;-68
2023/10/14 08:07:14;;;;;;;11.30;8.00;;;;;;;18.48;64.56;100541.80;108167;1253;60672;-68
2023/10/14 08:09:43;;;;;;;10.30;7.10;;;;;;;18.61;64.39;100542.95;108211;1251;74662;-68
2023/10/14 08:12:10;;;;;;;11.70;7.80;;;;;;;18.72;64.22;100541.15;108169;1251;71770;-68
2023/10/14 08:14:38;;;;;;;13.60;8.40;;;;;;;18.82;63.66;100539.92;108160;1254;71038;-67
2023/10/14 08:17:11;;;;;;;13.50;8.50;;;;;;;18.90;63.23;100538.11;108252;1257;61365;-69
2023/10/14 08:19:39;;;;;;;13.10;8.60;;;;;;;19.03;63.16;100530.95;108352;1251;61104;-70
2023/10/14 08:22:08;;;;;;;12.60;8.80;;;;;;;19.14;62.86;100528.20;108256;1251;73367;-72
2023/10/14 08:24:38;;;;;;;12.00;8.60;;;;;;;19.23;62.31;100525.39;108188;1253;72777;-69
2023/10/14 08:27:07;;;;;;;12.30;7.60;;;;;;;19.30;62.17;100520.95;108293;1251;71439;-69
2023/10/14 08:29:35;;;;;;;11.30;8.50;;;;;;;19.39;61.79;100519.88;108193;1253;61623;-69
2023/10/14 08:32:03;;;;;;;10.90;7.80;;;;;;;19.48;61.49;100520.52;108226;1251;61244;-71
2023/10/14 08:34:32;;;;;;;13.10;8.40;;;;;;;19.57;61.16;100520.30;108227;1251;73325;-68
2023/10/14 08:37:01;;;;;;;9.80;7.30;;;;;;;19.66;61.10;100510.08;108171;1251;71728;-68
2023/10/14 08:39:31;;;;;;;12.60;7.90;;;;;;;19.78;60.88;100502.54;108297;1251;72488;-70
2023/10/14 08:41:58;;;;;;;9.80;7.40;;;;;;;19.88;60.10;100496.00;108208;1251;61186;-68
2023/10/14 08:44:28;;;;;;;10.80;7.30;;;;;;;19.96;59.56;100497.36;108248;1251;61108;-69
2023/10/14 08:46:55;;;;;;;10.30;7.30;;;;;;;20.01;59.06;100494.07;108195;1251;75683;-70
2023/10/14 08:49:27;;;;;;;10.80;7.30;;;;;;;20.05;58.79;100495.87;108079;1251;72895;-68
2023/10/14 08:51:55;;;;;;;9.50;7.10;;;;;;;20.09;58.58;100486.59;108026;1259;72695;-68
2023/10/14 08:54:23;;;;;;;9.40;7.00;;;;;;;20.13;58.02;100481.13;108110;1253;59414;-69
2023/10/14 08:56:52;;;;;;;9.90;6.70;;;;;;;20.19;57.94;100480.89;108203;1251;61185;-68
2023/10/14 08:59:22;;;;;;;8.80;6.70;;;;;;;20.25;57.69;100481.92;108182;1251;74740;-69
2023/10/14 09:01:53;;;;;;;9.60;6.90;;;;;;;20.29;57.63;100478.08;108142;1251;71655;-68
2023/10/14 09:04:29;;;;;;;7.80;6.00;;;;;;;20.36;57.45;100478.85;108105;1259;74943;-69
2023/10/14 09:07:01;;;;;;;9.50;6.90;;;;;;;20.42;56.89;100473.51;108112;1253;61196;-70
2023/10/14 09:09:32;;;;;;;9.90;6.00;;;;;;;20.51;56.76;100472.52;108131;1251;61205;-69
2023/10/14 09:12:10;;;;;;;7.40;5.70;;;;;;;20.62;56.55;100467.80;108093;1251;73451;-69
2023/10/14 09:14:44;;;;;;;9.30;6.30;;;;;;;20.73;56.45;100462.73;108152;1251;71625;-69
2023/10/14 09:17:15;;;;;;;8.30;6.60;;;;;;;20.84;56.37;100463.95;108196;1251;71331;-70
2023/10/14 09:19:44;;;;;;;7.50;6.10;;;;;;;20.95;56.14;100461.27;108169;1251;61737;-69
2023/10/14 09:22:26;;;;;;;7.80;6.20;;;;;;;21.06;55.64;100461.71;108239;1251;61097;-68
2023/10/14 09:24:58;;;;;;;8.00;6.30;;;;;;;21.19;55.04;100453.13;108156;1251;74642;-69
2023/10/14 09:27:30;;;;;;;10.00;6.00;;;;;;;21.29;54.61;100448.35;108244;1251;72940;-69
2023/10/14 09:29:58;;;;;;;8.10;5.80;;;;;;;21.40;54.31;100447.14;108168;1253;71128;-67
2023/10/14 09:32:27;;;;;;;7.80;6.20;;;;;;;21.49;53.86;100443.45;108197;1254;59324;-69
2023/10/14 09:34:55;;;;;;;9.90;6.20;;;;;;;21.60;54.14;100440.57;108204;1251;61215;-67
2023/10/14 09:37:23;;;;;;;10.20;7.00;;;;;;;21.74;53.81;100434.24;108215;1251;74817;-68
2023/10/14 09:39:57;;;;;;;8.20;6.00;;;;;;;21.88;53.44;100431.92;108143;1251;70998;-68
2023/10/14 09:42:31;;;;;;;9.00;6.00;;;;;;;22.00;52.72;100423.48;108142;1251;72467;-69
2023/10/14 09:45:09;;;;;;;8.00;6.00;;;;;;;22.03;52.18;100423.05;108217;1251;61106;-70
2023/10/14 09:47:45;;;;;;;8.60;6.10;;;;;;;22.10;52.40;100420.00;108225;1251;61212;-69
2023/10/14 09:50:14;;;;;;;8.50;6.30;;;;;;;22.21;52.19;100421.41;108211;1251;74808;-69
2023/10/14 09:52:42;;;;;;;8.40;6.30;;;;;;;22.30;51.98;100416.02;108239;1251;71947;-69
2023/10/14 09:55:13;;;;;;;9.60;7.20;;;;;;;22.38;51.73;100415.18;108170;1251;70843;-68
2023/10/14 09:57:47;;;;;;;10.10;7.00;;;;;;;22.44;51.28;100409.65;108121;1251;61212;-69
2023/10/14 10:00:22;;;;;;;9.40;6.80;;;;;;;22.47;50.91;100408.98;108269;1251;61112;-69
2023/10/14 10:03:06;;;;;;;7.80;6.50;;;;;;;22.49;50.82;100394.55;108080;1251;75608;-69
2023/10/14 10:06:06;;;;;;;8.00;6.70;;;;;;;22.52;50.80;100391.77;108187;1251;74880;-67
2023/10/14 10:09:28;;;;;;;9.40;6.60;;;;;;;22.60;50.77;100386.27;108117;1251;71682;-69
2023/10/14 10:12:21;;;;;;;8.50;6.50;;;;;;;22.68;50.66;100376.17;108249;1251;61219;-67
2023/10/14 10:15:01;;;;;;;9.00;6.40;;;;;;;22.73;50.55;100373.44;108288;1256;61063;-67
2023/10/14 10:17:58;;;;;;;8.50;6.50;;;;;;;22.76;50.35;100367.29;108171;1251;74809;-69
2023/10/14 10:20:56;;;;;;;9.70;6.50;;;;;;;22.76;50.19;100369.69;108317;1251;74689;-68
2023/10/14 10:23:39;;;;;;;7.30;6.00;;;;;;;22.76;50.32;100370.80;108325;1251;72752;-69
2023/10/14 10:26:14;;;;;;;9.10;6.40;;;;;;;22.78;50.18;100360.52;108154;1254;60101;-70
2023/10/14 10:28:53;;;;;;;10.50;7.30;;;;;;;22.78;49.86;100360.28;108232;1251;61192;-70
2023/10/14 10:31:41;;;;;;;11.40;6.70;;;;;;;22.72;49.42;100351.92;108334;1251;74931;-69
2023/10/14 10:34:23;;;;;;;;;;;;;;;22.67;49.79;100348.52;108175;1251;71468;-69
2023/10/14 10:37:19;;;;;;;8.50;6.50;;;;;;;22.67;50.14;100339.49;108279;1251;72645;-68
2023/10/14 10:40:10;;;;;;;10.00;6.80;;;;;;;22.72;50.28;100327.19;108113;1257;61243;-67
2023/10/14 10:43:11;;;;;;;8.80;6.80;;;;;;;22.85;50.54;100330.13;108200;1253;60019;-67
2023/10/14 10:45:42;;;;;;;9.10;6.60;;;;;;;23.00;50.21;100327.77;108096;1257;74659;-69
2023/10/14 10:48:14;;;;;;;8.60;6.60;;;;;;;23.08;49.78;100324.52;108151;1257;72693;-69
2023/10/14 10:50:42;;;;;;;8.80;6.60;;;;;;;23.16;49.59;100321.71;108177;1251;72479;-68
2023/10/14 10:53:17;;;;;;;9.40;6.70;;;;;;;23.22;49.08;100321.70;108146;1253;61240;-69
2023/10/14 10:55:46;;;;;;;9.30;6.40;;;;;;;23.22;48.98;100319.35;108156;1251;61281;-68
2023/10/14 10:58:14;;;;;;;9.30;6.00;;;;;;;23.23;48.88;100313.09;108130;1251;74678;-70
2023/10/14 11:00:46;;;;;;;8.80;6.00;;;;;;;23.24;48.27;100311.16;108215;1251;71705;-69
2023/10/14 11:03:16;;;;;;;9.30;6.10;;;;;;;23.22;48.51;100308.16;108117;1251;72567;-69
2023/10/14 11:05:46;;;;;;;10.00;6.00;;;;;;;23.32;48.84;100305.45;108117;1251;61222;-68
2023/10/14 11:08:16;;;;;;;8.00;5.90;;;;;;;23.41;48.34;100301.59;108106;1251;61039;-70
2023/10/14 11:10:45;;;;;;;7.60;5.80;;;;;;;23.46;48.00;100303.11;108179;1251;73414;-68
2023/10/14 11:13:13;;;;;;;10.10;6.20;;;;;;;23.48;47.65;100297.62;108164;1257;72710;-68
2023/10/14 11:15:43;;;;;;;9.10;5.90;;;;;;;23.48;47.39;100296.38;108198;1253;71374;-69
2023/10/14 11:18:11;;;;;;;9.70;5.70;;;;;;;23.49;47.55;100294.36;108185;1251;61256;-68
2023/10/14 11:20:50;;;;;;;9.60;6.00;;;;;;;23.50;47.43;100293.73;108110;1255;61086;-68
2023/10/14 11:23:17;;;;;;;11.10;6.00;;;;;;;23.51;47.44;100291.87;108145;1254;73434;-70
2023/10/14 11:25:46;;;;;;;9.30;6.10;;;;;;;23.53;47.66;100287.09;108208;1251;72701;-68
2023/10/14 11:28:14;;;;;;;8.30;5.80;;;;;;;23.56;47.48;100283.34;108245;1254;72718;-68
2023/10/14 11:30:46;;;;;;;8.00;5.90;;;;;;;23.60;47.59;100275.34;108256;1251;63285;-68
2023/10/14 11:33:17;;;;;;;10.40;6.30;;;;;;;23.68;47.39;100271.58;108242;1251;61243;-69
2023/10/14 11:35:49;;;;;;;9.90;6.50;;;;;;;23.74;47.04;100264.12;108158;1251;73481;-69
2023/10/14 11:38:18;;;;;;;7.70;5.50;;;;;;;23.80;46.86;100261.44;108179;1251;71376;-70
2023/10/14 11:40:49;;;;;;;10.70;5.50;;;;;;;23.84;46.57;100258.96;108278;1251;72481;-68
2023/10/14 11:43:17;;;;;;;7.60;6.20;;;;;;;23.86;46.36;100252.17;108234;1251;61234;-69
2023/10/14 11:45:45;;;;;;;9.20;5.70;;;;;;;23.89;46.48;100251.54;108169;1251;60011;-69
2023/10/14 11:48:26;;;;;;;10.10;6.20;;;;;;;23.94;46.71;100246.89;108115;1257;74700;-69
2023/10/14 11:50:58;;;;;;;10.20;6.00;;;;;;;24.01;46.62;100244.08;108198;1251;72710;-69
2023/10/14 11:53:28;;;;;;;10.70;6.30;;;;;;;24.09;46.24;100240.52;108183;1251;71345;-69
2023/10/14 11:55:59;;;;;;;9.50;5.70;;;;;;;24.11;45.85;100234.10;108235;1251;61346;-70
2023/10/14 11:58:35;;;;;;;8.90;5.20;;;;;;;24.05;45.44;100227.81;108211;1251;60352;-68
2023/10/14 12:01:05;;;;;;;7.50;5.50;;;;;;;24.00;45.28;100225.67;108230;1251;73377;-67
2023/10/14 12:03:34;;;;;;;9.30;5.60;;;;;;;24.04;45.78;100222.49;108229;1251;71394;-69
2023/10/14 12:06:03;;;;;;;9.60;5.70;;;;;;;24.15;45.89;100225.45;108177;1257;71441;-69
2023/10/14 12:08:36;;;;;;;8.90;5.70;;;;;;;24.27;45.58;100221.80;108232;1251;61250;-69
2023/10/14 12:11:05;;;;;;;8.00;5.80;;;;;;;24.32;45.37;100217.02;108182;1251;60526;-69
2023/10/14 12:13:32;;;;;;;8.00;5.50;;;;;;;24.32;45.00;100215.60;108227;1251;74666;-68